Accueil
METAR-TAF:

METAR-TAF

Aéroports :

Aéroport Andorre

La Seu d'Urgell, Espagne

latitude: 42-20-29N, longitude: 001-24-17E, altitude: 802 m

Observation

Le bulletin a été fait il y a 23 heures et 35 minutes, à 16:00 UTC
Vent 7 kt de ouest/nord-ouest, variant entre ouest et nord/nord-ouest
Température 13°C
Humidité 35%
Pression 1011 hPa
Visibilité 10 km ou plus
Nuages épars à une hauteur de 5500 ft

METAR: LESU 261600Z 29007KT 260V330 9999 SCT055 13/M02 Q1011

Heure: 16:35 (15:35 UTC)

Prévision

Le bulletin a été fait il y a 25 heures et 35 minutes, à 14:00 UTC
Prévision valable du 26 à 15 UTC au 27 à 15 UTC
Vent 4 kt de direction variable
Visibilité 10 km ou plus
Quelques nuages à une hauteur de 2000 ft
Probabilité 30% :
Temporairement
du 26 à 15 UTC au 26 à 17 UTC
Vent 10 kt de nord/nord-ouest

TAF: LESU 261400Z 2615/2715 VRB04KT 9999 FEW020 TX17/2713Z TN00/2705Z PROB30 TEMPO 2615/2617 33010KT

Observations et prévisions météorologiques de plus de 4000 aéroports (messages METAR et TAF).

Les stations disponibles sont représentées par des disques jaunes et rouges sur la carte.

Passer la souris dessus pour voir le nom de la station.

Cliquer dessus pour voir les observations et prévisions météorologiques.

Pour changer de carte: cliquez sur les boutons verts avec une croix noire pour zoomer, sur le bouton vert avec un tiret pour effectuer un zoom arrière, ou sur les flèches vertes pour les cartes adjacentes.


METAR-TAF: